createdAt,value
2018-01-27T00:01:13.856Z,19.03
2018-01-27T00:03:46.369Z,19.17
2018-01-27T00:06:18.882Z,27.37
2018-01-27T00:08:51.396Z,19.17
2018-01-27T00:11:23.884Z,20.17
2018-01-27T00:13:56.400Z,17.70
2018-01-27T00:16:28.901Z,20.80
2018-01-27T00:19:01.504Z,19.73
2018-01-27T00:21:34.002Z,20.60
2018-01-27T00:24:06.518Z,21.73
2018-01-27T00:26:39.007Z,21.07
2018-01-27T00:29:11.529Z,22.17
2018-01-27T00:31:44.042Z,20.70
2018-01-27T00:34:16.565Z,19.43
2018-01-27T00:36:49.049Z,21.50
2018-01-27T00:39:21.550Z,25.37
2018-01-27T00:41:54.926Z,18.63
2018-01-27T00:44:27.451Z,19.47
2018-01-27T00:46:59.979Z,20.53
2018-01-27T00:49:32.489Z,20.10
2018-01-27T00:52:05.001Z,20.67
2018-01-27T00:54:37.508Z,21.03
2018-01-27T00:57:09.998Z,20.83
2018-01-27T00:59:42.532Z,18.27
2018-01-27T01:02:15.049Z,21.17
2018-01-27T01:04:47.566Z,20.60
2018-01-27T01:07:20.051Z,17.83
2018-01-27T01:09:52.570Z,20.10
2018-01-27T01:12:25.077Z,19.87
2018-01-27T01:14:57.592Z,20.50
2018-01-27T01:17:30.101Z,21.83
2018-01-27T01:20:02.605Z,20.47
2018-01-27T01:22:35.133Z,22.33
2018-01-27T01:25:07.633Z,22.17
2018-01-27T01:27:40.148Z,24.03
2018-01-27T01:30:12.641Z,25.80
2018-01-27T01:32:45.151Z,25.17
2018-01-27T01:35:17.639Z,20.13
2018-01-27T01:37:50.151Z,23.83
2018-01-27T01:40:22.639Z,22.77
2018-01-27T01:43:00.651Z,21.13
2018-01-27T01:45:33.149Z,22.23
2018-01-27T01:48:05.675Z,24.83
2018-01-27T01:50:38.175Z,20.23
2018-01-27T01:53:10.687Z,22.97
2018-01-27T01:55:43.177Z,23.40
2018-01-27T01:58:15.692Z,24.57
2018-01-27T02:00:48.195Z,22.43
2018-01-27T02:03:20.714Z,22.83
2018-01-27T02:05:53.209Z,22.60
2018-01-27T02:08:25.728Z,22.90
2018-01-27T02:10:58.273Z,21.80
2018-01-27T02:13:30.783Z,22.97
2018-01-27T02:16:03.267Z,23.17
2018-01-27T02:18:35.771Z,21.63
2018-01-27T02:21:08.254Z,21.67
2018-01-27T02:23:41.600Z,22.07
2018-01-27T02:26:14.094Z,21.90
2018-01-27T02:28:46.631Z,21.20
2018-01-27T02:31:19.128Z,22.00
2018-01-27T02:33:51.704Z,23.33
2018-01-27T02:36:24.205Z,24.77
2018-01-27T02:38:56.731Z,21.33
2018-01-27T02:41:29.224Z,22.30
2018-01-27T02:44:01.762Z,23.37
2018-01-27T02:46:34.271Z,22.20
2018-01-27T02:49:06.786Z,21.27
2018-01-27T02:51:39.288Z,22.83
2018-01-27T02:54:11.799Z,21.57
2018-01-27T02:56:44.305Z,24.73
2018-01-27T02:59:16.824Z,22.90
2018-01-27T03:01:49.325Z,24.43
2018-01-27T03:04:21.836Z,21.20
2018-01-27T03:06:54.355Z,23.20
2018-01-27T03:09:26.879Z,24.63
2018-01-27T03:11:59.360Z,25.00
2018-01-27T03:14:31.882Z,27.33
2018-01-27T03:17:04.384Z,21.23
2018-01-27T03:19:36.902Z,23.27
2018-01-27T03:22:09.397Z,22.13
2018-01-27T03:24:41.912Z,22.40
2018-01-27T03:27:14.414Z,20.43
2018-01-27T03:29:47.015Z,21.13
2018-01-27T03:32:19.512Z,25.03
2018-01-27T03:34:53.858Z,24.10
2018-01-27T03:37:26.356Z,20.50
2018-01-27T03:39:58.862Z,20.77
2018-01-27T03:42:31.344Z,22.67
2018-01-27T03:45:03.865Z,19.70
2018-01-27T03:47:36.364Z,20.93
2018-01-27T03:50:08.870Z,17.77
2018-01-27T03:52:41.448Z,19.30
2018-01-27T03:55:13.957Z,19.07
2018-01-27T03:57:46.449Z,21.10
2018-01-27T04:00:18.962Z,20.33
2018-01-27T04:02:51.459Z,21.00
2018-01-27T04:05:23.981Z,20.83
2018-01-27T04:07:56.466Z,19.63
2018-01-27T04:10:29.062Z,19.43
2018-01-27T04:13:01.550Z,19.13
2018-01-27T04:15:34.059Z,24.30
2018-01-27T04:18:06.545Z,19.93
2018-01-27T04:20:39.091Z,23.57
2018-01-27T04:23:11.590Z,22.60
2018-01-27T04:25:44.107Z,19.67
2018-01-27T04:28:16.599Z,18.07
2018-01-27T04:30:49.138Z,17.73
2018-01-27T04:33:21.635Z,19.30
2018-01-27T04:35:54.147Z,19.83
2018-01-27T04:38:26.641Z,28.53
2018-01-27T04:40:59.162Z,19.07
2018-01-27T04:43:31.666Z,22.27
2018-01-27T04:46:04.186Z,25.20
2018-01-27T04:48:36.715Z,20.17
2018-01-27T04:51:09.201Z,22.27
2018-01-27T04:53:41.712Z,25.00
2018-01-27T04:56:14.209Z,22.67
2018-01-27T04:58:46.727Z,21.33
2018-01-27T05:01:19.220Z,24.67
2018-01-27T05:03:51.735Z,21.00
2018-01-27T05:06:24.249Z,23.40
2018-01-27T05:08:56.767Z,25.73
2018-01-27T05:11:29.264Z,22.23
2018-01-27T05:14:01.768Z,24.33
2018-01-27T05:16:34.241Z,24.93
2018-01-27T05:19:06.753Z,23.37
2018-01-27T05:21:39.270Z,29.50
2018-01-27T05:24:11.800Z,23.63
2018-01-27T05:26:44.282Z,25.53
2018-01-27T05:29:16.797Z,22.93
2018-01-27T05:31:49.301Z,26.60
2018-01-27T05:34:21.825Z,22.73
2018-01-27T05:36:55.381Z,27.00
2018-01-27T05:39:27.896Z,23.43
2018-01-27T05:42:00.392Z,25.40
2018-01-27T05:44:32.895Z,23.63
2018-01-27T05:47:05.397Z,22.63
2018-01-27T05:49:37.911Z,21.43
2018-01-27T05:52:10.415Z,22.73
2018-01-27T05:54:42.957Z,24.10
2018-01-27T05:57:15.448Z,25.80
2018-01-27T05:59:47.957Z,21.57
2018-01-27T06:02:20.459Z,23.63
2018-01-27T06:04:52.984Z,21.80
2018-01-27T06:07:25.479Z,22.50
2018-01-27T06:09:57.990Z,22.97
2018-01-27T06:12:30.482Z,24.50
2018-01-27T06:15:03.002Z,20.77
2018-01-27T06:17:35.489Z,21.03
2018-01-27T06:20:08.011Z,21.20
2018-01-27T06:22:40.509Z,20.07
2018-01-27T06:25:13.015Z,21.10
2018-01-27T06:27:45.510Z,20.63
2018-01-27T06:30:18.031Z,21.23
2018-01-27T06:32:50.512Z,23.23
2018-01-27T06:35:23.030Z,22.07
2018-01-27T06:37:55.537Z,20.00
2018-01-27T06:40:28.058Z,20.87
2018-01-27T06:43:00.565Z,21.53
2018-01-27T06:45:33.074Z,22.07
2018-01-27T06:48:06.504Z,27.50
2018-01-27T06:50:39.018Z,22.17
2018-01-27T06:53:11.511Z,19.53
2018-01-27T06:55:44.023Z,21.37
2018-01-27T06:58:16.683Z,19.87
2018-01-27T07:00:49.191Z,22.00
2018-01-27T07:03:21.685Z,22.17
2018-01-27T07:05:54.208Z,21.47
2018-01-27T07:08:26.709Z,27.30
2018-01-27T07:10:59.215Z,20.07
2018-01-27T07:13:31.709Z,22.50
2018-01-27T07:16:04.217Z,24.33
2018-01-27T07:18:37.274Z,23.20
2018-01-27T07:21:09.815Z,21.93
2018-01-27T07:23:42.352Z,17.93
2018-01-27T07:26:14.867Z,25.80
2018-01-27T07:28:48.279Z,26.93
2018-01-27T07:31:27.176Z,22.17
2018-01-27T07:33:59.672Z,27.47
2018-01-27T07:36:32.189Z,28.43
2018-01-27T07:39:04.693Z,26.10
2018-01-27T07:41:37.219Z,25.90
2018-01-27T07:44:09.716Z,26.43
2018-01-27T07:46:42.226Z,26.83
2018-01-27T07:49:14.720Z,25.27
2018-01-27T07:51:47.226Z,19.13
2018-01-27T07:54:19.722Z,24.73
2018-01-27T07:56:52.227Z,19.20
2018-01-27T07:59:24.750Z,23.30
2018-01-27T08:01:57.266Z,23.70
2018-01-27T08:04:29.755Z,21.43
2018-01-27T08:07:02.514Z,22.67
2018-01-27T08:09:35.056Z,20.30
2018-01-27T08:12:07.574Z,20.90
2018-01-27T08:14:40.084Z,25.70
2018-01-27T08:17:12.598Z,24.27
2018-01-27T08:19:45.101Z,22.80
2018-01-27T08:22:17.621Z,24.57
2018-01-27T08:24:50.164Z,24.33
2018-01-27T08:27:22.667Z,21.80
2018-01-27T08:29:55.180Z,24.47
2018-01-27T08:32:27.737Z,24.07
2018-01-27T08:35:00.246Z,24.87
2018-01-27T08:37:32.728Z,23.67
2018-01-27T08:40:05.246Z,22.00
2018-01-27T08:42:38.548Z,23.50
2018-01-27T08:45:11.094Z,26.47
2018-01-27T08:47:43.605Z,25.20
2018-01-27T08:50:16.129Z,23.33
2018-01-27T08:52:48.639Z,22.37
2018-01-27T08:55:22.071Z,22.50
2018-01-27T08:57:54.602Z,27.90
2018-01-27T09:00:27.116Z,27.53
2018-01-27T09:02:59.619Z,26.87
2018-01-27T09:05:32.157Z,25.37
2018-01-27T09:08:04.651Z,26.27
2018-01-27T09:10:37.644Z,26.03
2018-01-27T09:13:10.277Z,24.30
2018-01-27T09:15:42.897Z,26.60
2018-01-27T09:18:15.408Z,27.07
2018-01-27T09:20:47.925Z,25.63
2018-01-27T09:23:20.418Z,23.70
2018-01-27T09:25:52.964Z,24.57
2018-01-27T09:28:25.459Z,24.83
2018-01-27T09:30:57.979Z,25.73
2018-01-27T09:33:30.500Z,28.20
2018-01-27T09:36:03.012Z,29.43
2018-01-27T09:38:35.561Z,25.37
2018-01-27T09:41:08.140Z,25.60
2018-01-27T09:43:40.628Z,25.53
2018-01-27T09:46:13.161Z,27.13
2018-01-27T09:48:45.673Z,27.90
2018-01-27T09:51:18.191Z,29.67
2018-01-27T09:53:50.679Z,25.93
2018-01-27T09:56:23.226Z,29.60
2018-01-27T09:58:55.767Z,28.17
2018-01-27T10:01:28.297Z,26.37
2018-01-27T10:04:00.795Z,30.00
2018-01-27T10:06:33.309Z,31.93
2018-01-27T10:09:05.837Z,28.90
2018-01-27T10:11:38.345Z,30.37
2018-01-27T10:14:10.834Z,28.70
2018-01-27T10:16:43.368Z,26.53
2018-01-27T10:19:15.882Z,29.03
2018-01-27T10:21:48.407Z,30.87
2018-01-27T10:24:20.897Z,29.97
2018-01-27T10:26:53.410Z,31.07
2018-01-27T10:29:25.916Z,28.57
2018-01-27T10:31:58.432Z,29.67
2018-01-27T10:34:30.919Z,32.70
2018-01-27T10:37:03.425Z,33.73
2018-01-27T10:39:35.917Z,34.97
2018-01-27T10:42:08.452Z,33.77
2018-01-27T10:44:40.946Z,33.73
2018-01-27T10:47:13.464Z,32.40
2018-01-27T10:49:45.955Z,32.00
2018-01-27T10:52:18.495Z,35.77
2018-01-27T10:54:51.069Z,36.40
2018-01-27T10:57:23.609Z,34.33
2018-01-27T10:59:56.103Z,32.10
2018-01-27T11:02:28.615Z,36.37
2018-01-27T11:05:01.095Z,32.67
2018-01-27T11:07:33.638Z,33.90
2018-01-27T11:10:06.136Z,34.83
2018-01-27T11:12:38.651Z,36.37
2018-01-27T11:15:11.139Z,36.70
2018-01-27T11:17:43.683Z,35.73
2018-01-27T11:20:16.208Z,36.57
2018-01-27T11:22:48.728Z,36.87
2018-01-27T11:25:21.487Z,37.73
2018-01-27T11:27:54.434Z,36.23
2018-01-27T11:30:27.287Z,37.60
2018-01-27T11:33:00.087Z,37.43
2018-01-27T11:35:33.014Z,39.47
2018-01-27T11:38:05.939Z,38.77
2018-01-27T11:40:38.444Z,37.33
2018-01-27T11:43:11.417Z,38.43
2018-01-27T11:45:44.001Z,40.97
2018-01-27T11:48:16.843Z,39.07
2018-01-27T11:50:49.651Z,39.40
2018-01-27T11:53:22.365Z,37.23
2018-01-27T11:55:55.148Z,37.27
2018-01-27T11:58:27.700Z,35.83
2018-01-27T12:01:00.451Z,38.33
2018-01-27T12:03:32.980Z,35.97
2018-01-27T12:06:05.504Z,38.37
2018-01-27T12:08:39.113Z,38.50
2018-01-27T12:11:12.137Z,38.90
2018-01-27T12:13:44.878Z,39.97
2018-01-27T12:16:17.496Z,36.87
2018-01-27T12:18:50.006Z,40.03
2018-01-27T12:21:22.737Z,35.93
2018-01-27T12:23:55.599Z,35.47
2018-01-27T12:26:28.115Z,37.23
2018-01-27T12:29:00.616Z,37.67
2018-01-27T12:31:33.139Z,36.03
2018-01-27T12:34:05.642Z,38.33
2018-01-27T12:36:38.160Z,36.10
2018-01-27T12:39:10.652Z,35.80
2018-01-27T12:41:43.158Z,36.53
2018-01-27T12:44:15.655Z,36.50
2018-01-27T12:46:48.175Z,34.90
2018-01-27T12:49:20.788Z,36.27
2018-01-27T12:51:53.309Z,34.87
2018-01-27T12:54:25.812Z,33.80
2018-01-27T12:56:58.341Z,36.43
2018-01-27T12:59:30.850Z,35.63
2018-01-27T13:02:03.356Z,33.30
2018-01-27T13:04:35.843Z,35.40
2018-01-27T13:07:08.364Z,33.47
2018-01-27T13:09:40.892Z,31.70
2018-01-27T13:12:13.415Z,34.17
2018-01-27T13:14:45.949Z,35.20
2018-01-27T13:17:18.472Z,32.53
2018-01-27T13:19:50.975Z,32.53
2018-01-27T13:22:23.592Z,34.63
2018-01-27T13:24:56.118Z,34.73
2018-01-27T13:27:28.642Z,34.13
2018-01-27T13:30:01.150Z,32.87
2018-01-27T13:32:33.669Z,35.50
2018-01-27T13:35:06.174Z,33.87
2018-01-27T13:37:38.683Z,33.60
2018-01-27T13:40:11.181Z,30.47
2018-01-27T13:42:43.716Z,31.83
2018-01-27T13:45:16.217Z,32.10
2018-01-27T13:47:48.770Z,32.93
2018-01-27T13:50:21.268Z,30.97
2018-01-27T13:52:53.772Z,32.20
2018-01-27T13:55:26.266Z,30.40
2018-01-27T13:57:58.776Z,30.27
2018-01-27T14:00:31.282Z,31.83
2018-01-27T14:03:03.822Z,31.00
2018-01-27T14:05:36.329Z,29.80
2018-01-27T14:08:08.845Z,31.57
2018-01-27T14:10:41.448Z,30.10
2018-01-27T14:13:13.951Z,28.93
2018-01-27T14:15:46.450Z,30.00
2018-01-27T14:18:18.960Z,28.83
2018-01-27T14:20:51.456Z,28.57
2018-01-27T14:23:23.988Z,28.80
2018-01-27T14:25:56.513Z,28.60
2018-01-27T14:28:29.033Z,29.17
2018-01-27T14:31:01.531Z,28.80
2018-01-27T14:33:34.035Z,28.87
2018-01-27T14:36:06.519Z,27.20
2018-01-27T14:38:39.034Z,28.83
2018-01-27T14:41:11.518Z,27.70
2018-01-27T14:43:44.030Z,28.10
2018-01-27T14:46:16.527Z,27.63
2018-01-27T14:48:49.062Z,25.43
2018-01-27T14:51:21.577Z,28.67
2018-01-27T14:53:54.152Z,25.63
2018-01-27T14:56:26.655Z,26.30
2018-01-27T14:58:59.174Z,27.03
2018-01-27T15:01:31.667Z,26.77
2018-01-27T15:04:04.174Z,26.70
2018-01-27T15:06:36.668Z,25.97
2018-01-27T15:09:09.180Z,26.00
2018-01-27T15:11:41.680Z,25.37
2018-01-27T15:14:14.214Z,24.40
2018-01-27T15:16:46.716Z,23.80
2018-01-27T15:19:19.235Z,23.73
2018-01-27T15:21:51.734Z,22.33
2018-01-27T15:24:24.268Z,22.80
2018-01-27T15:26:56.763Z,22.57
2018-01-27T15:29:30.193Z,22.97
2018-01-27T15:32:02.701Z,22.40
2018-01-27T15:34:35.270Z,24.57
2018-01-27T15:37:07.769Z,24.20
2018-01-27T15:39:40.277Z,24.77
2018-01-27T15:42:12.767Z,22.97
2018-01-27T15:44:45.376Z,23.20
2018-01-27T15:47:17.857Z,22.97
2018-01-27T15:49:50.367Z,21.40
2018-01-27T15:52:22.910Z,23.63
2018-01-27T15:54:55.446Z,24.73
2018-01-27T15:57:27.965Z,23.03
2018-01-27T16:00:00.468Z,23.27
2018-01-27T16:02:32.980Z,24.40
2018-01-27T16:05:05.638Z,24.93
2018-01-27T16:07:38.239Z,25.07
2018-01-27T16:10:10.794Z,24.87
2018-01-27T16:12:43.316Z,25.83
2018-01-27T16:15:15.814Z,26.77
2018-01-27T16:17:48.355Z,26.43
2018-01-27T16:20:20.851Z,25.93
2018-01-27T16:22:53.366Z,26.40
2018-01-27T16:25:27.803Z,27.17
2018-01-27T16:28:00.316Z,25.27
2018-01-27T16:30:32.826Z,26.23
2018-01-27T16:33:05.338Z,27.27
2018-01-27T16:35:37.829Z,27.63
2018-01-27T16:38:10.336Z,25.57
2018-01-27T16:40:42.835Z,27.07
2018-01-27T16:43:15.358Z,26.60
2018-01-27T16:45:47.873Z,23.80
2018-01-27T16:48:20.421Z,22.67
2018-01-27T16:50:52.937Z,24.10
2018-01-27T16:53:25.451Z,23.50
2018-01-27T16:55:57.943Z,23.63
2018-01-27T16:58:30.454Z,25.00
2018-01-27T17:01:02.953Z,24.17
2018-01-27T17:03:35.464Z,22.33
2018-01-27T17:06:07.951Z,21.97
2018-01-27T17:08:40.463Z,22.03
2018-01-27T17:11:12.950Z,21.40
2018-01-27T17:13:45.497Z,21.43
2018-01-27T17:16:17.982Z,22.20
2018-01-27T17:18:50.553Z,22.63
2018-01-27T17:21:28.996Z,23.67
2018-01-27T17:24:01.505Z,25.13
2018-01-27T17:26:33.999Z,26.93
2018-01-27T17:29:06.517Z,24.67
2018-01-27T17:31:39.016Z,28.03
2018-01-27T17:34:11.529Z,26.60
2018-01-27T17:36:44.121Z,27.87
2018-01-27T17:39:16.655Z,26.47
2018-01-27T17:41:49.154Z,28.97
2018-01-27T17:44:21.673Z,29.37
2018-01-27T17:46:54.172Z,27.00
2018-01-27T17:49:26.687Z,29.87
2018-01-27T17:51:59.194Z,30.63
2018-01-27T17:54:31.715Z,31.07
2018-01-27T17:57:04.211Z,29.77
2018-01-27T18:02:15.640Z,30.60
2018-01-27T18:04:48.142Z,29.63
2018-01-27T18:07:20.639Z,30.90
2018-01-27T18:09:53.174Z,30.57
2018-01-27T18:12:25.689Z,29.33
2018-01-27T18:14:58.211Z,28.70
2018-01-27T18:17:30.711Z,30.07
2018-01-27T18:20:03.214Z,31.03
2018-01-27T18:22:35.719Z,32.07
2018-01-27T18:25:08.311Z,30.30
2018-01-27T18:27:40.830Z,33.27
2018-01-27T18:30:13.639Z,31.83
2018-01-27T18:32:46.256Z,31.07
2018-01-27T18:35:18.775Z,30.67
2018-01-27T18:37:51.306Z,31.87
2018-01-27T18:40:23.805Z,31.00
2018-01-27T18:42:56.309Z,30.13
2018-01-27T18:45:28.836Z,31.37
2018-01-27T18:48:01.337Z,32.40
2018-01-27T18:50:33.846Z,31.57
2018-01-27T18:53:06.398Z,34.40
2018-01-27T18:55:38.908Z,30.87
2018-01-27T18:58:11.403Z,35.50
2018-01-27T19:00:43.926Z,34.00
2018-01-27T19:03:16.442Z,30.67
2018-01-27T19:05:48.954Z,31.73
2018-01-27T19:08:21.444Z,30.40
2018-01-27T19:10:53.971Z,31.67
2018-01-27T19:13:26.513Z,30.83
2018-01-27T19:15:59.037Z,32.80
2018-01-27T19:18:31.554Z,30.90
2018-01-27T19:21:04.066Z,29.53
2018-01-27T19:23:36.617Z,28.23
2018-01-27T19:26:09.225Z,27.57
2018-01-27T19:28:41.848Z,27.60
2018-01-27T19:31:14.399Z,27.90
2018-01-27T19:33:46.916Z,28.13
2018-01-27T19:36:19.419Z,25.53
2018-01-27T19:38:51.947Z,26.13
2018-01-27T19:41:24.552Z,26.17
2018-01-27T19:43:57.079Z,24.70
2018-01-27T19:46:29.569Z,25.73
2018-01-27T19:49:02.084Z,24.10
2018-01-27T19:51:34.589Z,21.57
2018-01-27T19:54:07.111Z,22.40
2018-01-27T19:56:39.613Z,22.93
2018-01-27T19:59:12.416Z,22.27
2018-01-27T20:01:44.955Z,21.40
2018-01-27T20:04:17.477Z,21.90
2018-01-27T20:06:49.963Z,21.20
2018-01-27T20:09:22.541Z,20.47
2018-01-27T20:11:55.114Z,21.17
2018-01-27T20:14:28.825Z,20.13
2018-01-27T20:17:01.604Z,19.67
2018-01-27T20:19:34.151Z,20.20
2018-01-27T20:22:06.694Z,19.63
2018-01-27T20:24:39.232Z,19.67
2018-01-27T20:27:11.730Z,19.43
2018-01-27T20:29:44.282Z,19.40
2018-01-27T20:32:16.912Z,18.90
2018-01-27T20:34:49.410Z,19.13
2018-01-27T20:37:21.992Z,17.83
2018-01-27T20:39:54.470Z,18.40
2018-01-27T20:42:26.992Z,17.80
2018-01-27T20:44:59.495Z,17.13
2018-01-27T20:47:32.005Z,16.77
2018-01-27T20:50:04.527Z,16.60
2018-01-27T20:52:37.038Z,16.90
2018-01-27T20:55:09.544Z,17.80
2018-01-27T20:57:42.054Z,16.00
2018-01-27T21:00:14.586Z,15.30
2018-01-27T21:02:47.086Z,16.70
2018-01-27T21:05:19.590Z,15.80
2018-01-27T21:07:52.092Z,16.97
2018-01-27T21:10:24.591Z,15.40
2018-01-27T21:12:57.137Z,14.40
2018-01-27T21:15:29.626Z,15.47
2018-01-27T21:18:02.118Z,14.73
2018-01-27T21:20:34.613Z,14.03
2018-01-27T21:23:07.109Z,14.17
2018-01-27T21:25:39.638Z,13.63
2018-01-27T21:28:12.370Z,13.17
2018-01-27T21:30:44.887Z,12.77
2018-01-27T21:33:17.376Z,12.97
2018-01-27T21:35:49.874Z,13.67
2018-01-27T21:38:22.372Z,12.70
2018-01-27T21:40:54.866Z,12.90
2018-01-27T21:43:27.367Z,11.73
2018-01-27T21:45:59.904Z,12.37
2018-01-27T21:48:32.414Z,12.13
2018-01-27T21:51:04.906Z,12.17
2018-01-27T21:53:37.388Z,11.87
2018-01-27T21:56:09.898Z,12.33
2018-01-27T21:58:42.387Z,11.73
2018-01-27T22:01:14.895Z,11.77
2018-01-27T22:03:47.387Z,11.50
2018-01-27T22:06:19.886Z,12.07
2018-01-27T22:08:52.399Z,11.73
2018-01-27T22:11:24.890Z,12.40
2018-01-27T22:13:57.380Z,11.13
2018-01-27T22:16:29.886Z,12.03
2018-01-27T22:19:02.397Z,11.17
2018-01-27T22:21:34.897Z,11.83
2018-01-27T22:24:07.389Z,11.07
2018-01-27T22:26:39.892Z,10.80
2018-01-27T22:29:12.412Z,11.13
2018-01-27T22:31:44.918Z,11.47
2018-01-27T22:34:17.427Z,11.50
2018-01-27T22:36:49.931Z,10.10
2018-01-27T22:39:22.433Z,11.03
2018-01-27T22:41:54.938Z,10.27
2018-01-27T22:44:27.428Z,10.33
2018-01-27T22:46:59.925Z,9.97
2018-01-27T22:49:32.432Z,9.60
2018-01-27T22:52:04.928Z,9.83
2018-01-27T22:54:37.414Z,9.77
2018-01-27T22:57:09.910Z,9.47
2018-01-27T22:59:42.424Z,8.80
2018-01-27T23:02:14.937Z,8.73
2018-01-27T23:04:47.451Z,9.10
2018-01-27T23:07:19.943Z,8.70
2018-01-27T23:09:52.465Z,10.07
2018-01-27T23:12:24.967Z,10.33
2018-01-27T23:14:57.487Z,10.33
2018-01-27T23:17:29.986Z,10.27
2018-01-27T23:20:02.506Z,10.13
2018-01-27T23:22:35.004Z,10.13
2018-01-27T23:25:07.510Z,10.50
2018-01-27T23:27:40.015Z,10.87
2018-01-27T23:30:12.561Z,9.87
2018-01-27T23:32:45.079Z,11.60
2018-01-27T23:35:17.608Z,10.67
2018-01-27T23:37:51.068Z,10.53
2018-01-27T23:40:23.608Z,10.90
2018-01-27T23:42:56.099Z,10.40
2018-01-27T23:45:28.636Z,10.97
2018-01-27T23:48:01.131Z,10.27
2018-01-27T23:50:33.642Z,11.23
2018-01-27T23:53:06.145Z,10.90
2018-01-27T23:55:38.705Z,9.47
2018-01-27T23:58:11.209Z,10.47
